x

North Hecate Strait (46183) Wave Buoy

5:00am - Sat 19th Apr 2014 All times are PDT. -7 hours from GMT.

  • Sig Wave height 14.1ft
  • Peak Period 9s
  • Wind
    38mph, 49mph gusts
  • Sea Temp 45°f
  • Air Temp 43°f
  • Sea Pressure 996.9mb
  • North Hecate Strait
  • North Hecate Strait

More Historic Weather Station data

Upgrade to MSW Pro to gain access to the past 30 days of data for over 8000 Wavebouys and Weather Stations around the globe.

Join Pro

Comparision Forecast

View Surf forecast
   
Sat 04/19 5:00am 14ft 9s 38 49 mph 996.9mb 45f 43f
4:00am 14ft 8s 38 47 mph 998.3mb 45f 44f
3:00am 13.5ft 9s 36 45 mph 999.4mb 45f 44f
2:00am 11.5ft 8s 34 40 mph 1000.4mb 45f 44f
1:00am 11ft 7s 34 43 mph 1001.9mb 45f 45f
12:00am 8.5ft 7s 31 38 mph 1002.9mb 46f 44f
Fri 04/18 11:00pm 8ft 7s 31 40 mph 1003.6mb 46f 45f
10:00pm 7ft 6s 29 36 mph 1004.8mb 45f 46f
9:00pm 6.5ft 7s 27 31 mph 1005.8mb 45f 46f
8:00pm 6.5ft 7s 27 34 mph 1006.7mb 46f 45f
7:00pm 7ft 6s 27 31 mph 1007.8mb 46f 45f
6:00pm 6ft 6s 27 34 mph 1008.5mb 45f 45f
5:00pm 5ft 5s 27 31 mph 1009.3mb 45f 45f
3:00pm 4ft 4s 22 29 mph 1010.9mb 45f 45f
2:00pm 3.5ft 4s 22 29 mph 1011.4mb 45f 44f
1:00pm 3.5ft 4s 22 27 mph 1012mb 46f 45f
12:00pm 3ft 4s 20 25 mph 1012.3mb 45f 45f
11:00am 2ft 3s 18 22 mph 1012.5mb 45f 45f
10:00am 1.6ft 11s 16 18 mph 1012.8mb 45f 45f
9:00am 1.6ft 10s 13 16 mph 1012.8mb 45f 45f
8:00am 1.6ft 10s 9 11 mph 1012.7mb 45f 45f
7:00am 2ft 7s 9 11 mph 1012.4mb 45f 45f
6:00am 1.6ft 14s 11
mph
1012mb 45f 44f
5:00am 2ft 10s 9 11 mph 1011.5mb 45f 44f
4:00am 2ft 7s 9 11 mph 1011.1mb 45f 44f
3:00am 2.5ft 11s 9 11 mph 1011mb 45f 44f
2:00am 2.5ft 5s 9
mph
1010.5mb 45f 44f
1:00am 2.5ft 11s 9 11 mph 1010.3mb 45f 44f
12:00am 3ft 6s 11 13 mph 1009.9mb 45f 45f
Thu 04/17 11:00pm 3ft 6s 13
mph
1009.5mb 45f 45f
10:00pm 3ft 7s 9 11 mph 1009mb 45f 44f
9:00pm 3.5ft 7s 11 13 mph 1008.4mb 45f 45f
8:00pm 3.5ft 7s 13 16 mph 1007.5mb 45f 45f
7:00pm 3.5ft 8s 13 18 mph 1006.9mb 45f 45f
6:00pm 4.5ft 8s 16 20 mph 1006.2mb 45f 45f
5:00pm 4.5ft 8s 18 20 mph 1005.4mb 45f 46f
4:00pm 5ft 8s 13 16 mph 1004.9mb 45f 45f
3:00pm 6ft 8s 13 16 mph 1004.1mb 45f 46f
2:00pm 6ft 8s 16 18 mph 1003.3mb 45f 46f
1:00pm 6ft 8s 18 22 mph 1002.3mb 45f 46f
12:00pm 7ft 9s 18 20 mph 1001.4mb 45f 46f
11:00am 7ft 9s 18 22 mph 1000.4mb 45f 46f
10:00am 7ft 9s 18 25 mph 999.4mb 45f 46f
9:00am 8ft 10s 13 18 mph 998.8mb 45f 45f
8:00am 8ft 9s 16 18 mph 997.9mb 45f 46f
7:00am 8.5ft 9s 18 20 mph 996.5mb 45f 45f
6:00am 10.5ft 9s 16 18 mph 994.6mb 45f 45f
5:00am 12.5ft 9s 18 25 mph 992.2mb 45f 46f
4:00am 12ft 8s 31 38 mph 991.9mb 45f 46f
3:00am 13ft 8s 36 47 mph 992.4mb 45f 46f
2:00am  -   -  34
mph
- - -
12:00am 8ft 6s 31 40 mph 995.4mb 45f 46f
Wed 04/16 11:00pm 7ft 7s 31 40 mph 997.4mb 45f 45f
10:00pm 6ft 7s 25 31 mph 999.5mb 45f 46f
9:00pm 6.5ft 7s 22 27 mph 1000.4mb 45f 46f
8:00pm 7ft 7s 22 27 mph 1000.9mb 45f 46f
7:00pm 7ft 7s 27 31 mph 1001.1mb 45f 46f
6:00pm 7ft 8s 25 29 mph 1001.6mb 45f 46f
5:00pm 8ft 7s 27 34 mph 1002.1mb 45f 45f
4:00pm  -   -  31
mph
- - 45f
3:00pm 6ft 6s 29 38 mph 1003.8mb 45f 45f
2:00pm 5.5ft 6s 27 31 mph 1004.8mb 45f 45f
1:00pm 5ft 6s 22 27 mph 1006mb 45f 44f
12:00pm 5ft 6s 22 27 mph 1007.2mb 45f 45f
11:00am 4ft 5s 22 27 mph 1008.1mb 45f 45f
10:00am 3.5ft 5s 18 22 mph 1008.6mb 45f 45f
9:00am 2.5ft 5s 18 20 mph 1009.3mb 45f 45f
8:00am 2.5ft 5s 13 16 mph 1010mb 45f 45f
7:00am 2.5ft 5s 13 18 mph 1010.5mb 45f 44f
6:00am 2.5ft 5s 13 18 mph 1010.9mb 45f 44f
5:00am 2.5ft 5s 11 13 mph 1011.3mb 45f 44f
4:00am 3ft 5s 13 16 mph 1011.6mb 45f 45f
3:00am 3.5ft 4s 16 20 mph 1012mb 45f 44f
2:00am 3.5ft 4s 22 29 mph 1012.6mb 45f 44f
1:00am 3.5ft 4s 18 22 mph 1013.1mb 45f 44f
12:00am 3.5ft 4s 20 22 mph 1013.5mb 45f 44f
Tue 04/15 11:00pm 3ft 4s 18 22 mph 1013.9mb 45f 45f
10:00pm 3ft 4s 18 22 mph 1013.9mb 45f 45f
9:00pm 2.5ft 4s 16 18 mph 1014.2mb 45f 45f
8:00pm 2.5ft 4s 16 18 mph 1014.1mb 45f 45f
7:00pm 2.5ft 5s 16 20 mph 1014.1mb 45f 46f
6:00pm 2.5ft 4s 13 18 mph 1014.4mb 45f 46f
5:00pm 2.5ft 6s 16 18 mph 1014.2mb 46f 46f
4:00pm 2ft 5s 13 16 mph 1014.2mb 46f 46f
3:00pm 2ft 5s 13
mph
1014mb 46f 46f
2:00pm 2ft 6s 11 13 mph 1014.3mb 45f 46f